world map with SJB marked

SJB - Airport

This information may not be accurate or current and is not valid for navigation or flight planning. No warranty of fitness for any purpose is made or implied.

flag of El Beniflag of Bolivia

Donate via PayPal

Additional information is available on the NEW Great Circle Mapper

Location
City:  San Joaquin, Mamoré, El Beni, Bolivia
Name:San Joaquin Airport
ICAO / IATA:SLJO / SJB

Details
Type:Airport (Aerodrome, Airfield)
Use:Public/Civil
Latitude:13°03'57"S (-13.065832)
Longitude:64°40'28"W (-64.674499)
Elevation:476 ft (145 m)
Runways:1
Longest:4688 × 98 ft (1429 × 30 m)

Time
Timezone:UTC+30:08 (DST+32:08)
Local Time:

Weather
METAR:SLJO  041400Z 14006KT 9999 FEW015 SCT080 BKN200 28/23 Q1015

Related Locations
Nearby:
Farthest:RPPN: 12278 mi / 19759 km
Thitu Island (Pagasa) [Rancudo Airfield], Spratly Islands, PLW, PH

Find:

   beyond  
but within

Other Information
Maps:
Sources:

  


 


Great Circle Mapper   Great Circle Mapper
Great Circle Mapper FAQ   Great Circle Mapper FAQ
  Karl's Home Page
KLS˛   KLS˛ Home
   GC on Facebook
Airlines of the World   Airlines of the World
Donate via PayPal


Copyright © 2004-2019, Karl L. Swartz. All rights reserved.
All trademarks mentioned herein belong to their respective owners.

Please see credits for attribution and copyright information.

Karl Swartz <karl@kls2.com>
  Powered by FreeBSD
Valid HTML 4.01!
Labeled with ICRA
hCard Microformat
Geo Microformat